Terminal Aerodrome Forecast
Issued by NWS Sterling, VA

Current Version | Previous Version | Graphics & Text | Print | Product List | Glossary On
Versions: 1 2 3 4 5 6 7 8 9 10 11 12 13 14 15
000
FTUS41 KLWX 132300
TAFMRB
TAF
KMRB 132333Z 1400/1424 16012KT P6SM SCT200
     FM140300 19006KT P6SM SCT250
     FM141000 19009KT P6SM BKN010
     FM141300 19011KT P6SM BKN250
     FM141700 19016G24KT P6SM SCT050 BKN130=

USA.gov is the U.S. government's official web portal to all federal, state and local government web resources and services.